sensor_id;sensor_type;location;lat;lon;timestamp;P1;durP1;ratioP1;P2;durP2;ratioP2
23181;SDS011;11759;51.282;6.642;2023-03-31T00:02:12;8.95;;;1.40;;
23181;SDS011;11759;51.282;6.642;2023-03-31T00:04:42;11.75;;;2.28;;
23181;SDS011;11759;51.282;6.642;2023-03-31T00:07:12;9.57;;;1.70;;
23181;SDS011;11759;51.282;6.642;2023-03-31T00:09:39;7.72;;;2.42;;
23181;SDS011;11759;51.282;6.642;2023-03-31T00:12:12;13.20;;;1.90;;
23181;SDS011;11759;51.282;6.642;2023-03-31T00:14:42;8.82;;;2.38;;
23181;SDS011;11759;51.282;6.642;2023-03-31T00:17:09;7.82;;;2.22;;
23181;SDS011;11759;51.282;6.642;2023-03-31T00:19:36;7.40;;;2.05;;
23181;SDS011;11759;51.282;6.642;2023-03-31T00:22:03;8.95;;;1.95;;
23181;SDS011;11759;51.282;6.642;2023-03-31T00:24:30;8.55;;;1.90;;
23181;SDS011;11759;51.282;6.642;2023-03-31T00:26:58;7.60;;;2.20;;
23181;SDS011;11759;51.282;6.642;2023-03-31T00:29:26;11.23;;;2.03;;
23181;SDS011;11759;51.282;6.642;2023-03-31T00:31:53;9.23;;;2.10;;
23181;SDS011;11759;51.282;6.642;2023-03-31T00:34:21;14.43;;;2.70;;
23181;SDS011;11759;51.282;6.642;2023-03-31T00:36:47;9.43;;;1.70;;
23181;SDS011;11759;51.282;6.642;2023-03-31T00:39:15;17.98;;;2.10;;
23181;SDS011;11759;51.282;6.642;2023-03-31T00:41:44;11.88;;;1.83;;
23181;SDS011;11759;51.282;6.642;2023-03-31T00:49:36;13.15;;;2.10;;
23181;SDS011;11759;51.282;6.642;2023-03-31T00:52:11;9.30;;;1.98;;
23181;SDS011;11759;51.282;6.642;2023-03-31T00:54:41;10.47;;;2.00;;
23181;SDS011;11759;51.282;6.642;2023-03-31T00:57:10;11.60;;;2.42;;
23181;SDS011;11759;51.282;6.642;2023-03-31T00:59:38;9.38;;;1.80;;
23181;SDS011;11759;51.282;6.642;2023-03-31T01:02:06;12.52;;;2.33;;
23181;SDS011;11759;51.282;6.642;2023-03-31T01:04:35;10.68;;;1.77;;
23181;SDS011;11759;51.282;6.642;2023-03-31T01:07:09;9.40;;;1.77;;
23181;SDS011;11759;51.282;6.642;2023-03-31T01:09:42;13.70;;;2.70;;
23181;SDS011;11759;51.282;6.642;2023-03-31T01:12:13;7.65;;;1.77;;
23181;SDS011;11759;51.282;6.642;2023-03-31T01:14:42;12.93;;;2.30;;
23181;SDS011;11759;51.282;6.642;2023-03-31T01:17:08;11.68;;;2.22;;
23181;SDS011;11759;51.282;6.642;2023-03-31T01:19:39;8.60;;;1.73;;
23181;SDS011;11759;51.282;6.642;2023-03-31T01:22:32;7.93;;;1.70;;
23181;SDS011;11759;51.282;6.642;2023-03-31T01:31:10;15.80;;;2.58;;
23181;SDS011;11759;51.282;6.642;2023-03-31T01:39:11;155.27;;;46.10;;
23181;SDS011;11759;51.282;6.642;2023-03-31T01:44:37;11.95;;;2.15;;
23181;SDS011;11759;51.282;6.642;2023-03-31T01:47:18;22.08;;;4.60;;
23181;SDS011;11759;51.282;6.642;2023-03-31T01:49:55;12.52;;;2.25;;
23181;SDS011;11759;51.282;6.642;2023-03-31T01:52:25;15.57;;;4.07;;
23181;SDS011;11759;51.282;6.642;2023-03-31T01:55:07;47.58;;;9.70;;
23181;SDS011;11759;51.282;6.642;2023-03-31T01:57:40;217.32;;;100.93;;
23181;SDS011;11759;51.282;6.642;2023-03-31T02:00:13;466.20;;;149.30;;
23181;SDS011;11759;51.282;6.642;2023-03-31T02:02:46;586.40;;;135.50;;
23181;SDS011;11759;51.282;6.642;2023-03-31T02:05:17;580.47;;;149.35;;
23181;SDS011;11759;51.282;6.642;2023-03-31T02:07:46;636.35;;;177.90;;
23181;SDS011;11759;51.282;6.642;2023-03-31T02:10:16;588.88;;;155.13;;
23181;SDS011;11759;51.282;6.642;2023-03-31T02:12:43;572.25;;;130.90;;
23181;SDS011;11759;51.282;6.642;2023-03-31T02:15:13;21.48;;;2.90;;
23181;SDS011;11759;51.282;6.642;2023-03-31T02:17:41;19.55;;;2.90;;
23181;SDS011;11759;51.282;6.642;2023-03-31T02:20:12;17.10;;;4.13;;
23181;SDS011;11759;51.282;6.642;2023-03-31T02:22:41;20.35;;;2.97;;
23181;SDS011;11759;51.282;6.642;2023-03-31T02:25:11;24.42;;;2.55;;
23181;SDS011;11759;51.282;6.642;2023-03-31T02:27:43;19.25;;;2.97;;
23181;SDS011;11759;51.282;6.642;2023-03-31T02:30:13;19.98;;;2.80;;
23181;SDS011;11759;51.282;6.642;2023-03-31T02:32:41;21.90;;;4.13;;
23181;SDS011;11759;51.282;6.642;2023-03-31T02:35:11;20.33;;;3.50;;
23181;SDS011;11759;51.282;6.642;2023-03-31T02:37:43;19.70;;;3.42;;
23181;SDS011;11759;51.282;6.642;2023-03-31T02:40:14;24.73;;;3.78;;
23181;SDS011;11759;51.282;6.642;2023-03-31T02:42:44;21.95;;;3.72;;
23181;SDS011;11759;51.282;6.642;2023-03-31T02:48:02;21.23;;;3.65;;
23181;SDS011;11759;51.282;6.642;2023-03-31T02:50:32;25.02;;;4.18;;
23181;SDS011;11759;51.282;6.642;2023-03-31T02:53:26;23.17;;;3.85;;
23181;SDS011;11759;51.282;6.642;2023-03-31T02:59:06;29.30;;;4.13;;
23181;SDS011;11759;51.282;6.642;2023-03-31T03:15:54;22.95;;;4.32;;
23181;SDS011;11759;51.282;6.642;2023-03-31T03:18:22;27.48;;;4.43;;
23181;SDS011;11759;51.282;6.642;2023-03-31T03:20:49;34.15;;;4.82;;
23181;SDS011;11759;51.282;6.642;2023-03-31T03:23:16;28.83;;;4.72;;
23181;SDS011;11759;51.282;6.642;2023-03-31T03:25:43;25.08;;;4.68;;
23181;SDS011;11759;51.282;6.642;2023-03-31T03:28:10;25.80;;;3.97;;
23181;SDS011;11759;51.282;6.642;2023-03-31T03:30:36;28.73;;;4.28;;
23181;SDS011;11759;51.282;6.642;2023-03-31T03:33:03;20.27;;;4.10;;
23181;SDS011;11759;51.282;6.642;2023-03-31T03:35:32;21.92;;;3.92;;
23181;SDS011;11759;51.282;6.642;2023-03-31T03:37:59;33.47;;;4.13;;
23181;SDS011;11759;51.282;6.642;2023-03-31T03:40:26;22.58;;;3.72;;
23181;SDS011;11759;51.282;6.642;2023-03-31T03:42:52;24.20;;;3.92;;
23181;SDS011;11759;51.282;6.642;2023-03-31T03:45:19;28.70;;;4.32;;
23181;SDS011;11759;51.282;6.642;2023-03-31T03:47:46;17.80;;;4.43;;
23181;SDS011;11759;51.282;6.642;2023-03-31T03:50:12;23.17;;;3.60;;
23181;SDS011;11759;51.282;6.642;2023-03-31T03:52:41;29.35;;;4.22;;
23181;SDS011;11759;51.282;6.642;2023-03-31T03:55:08;28.83;;;3.58;;
23181;SDS011;11759;51.282;6.642;2023-03-31T03:57:37;18.60;;;3.35;;
23181;SDS011;11759;51.282;6.642;2023-03-31T04:00:05;23.67;;;3.55;;
23181;SDS011;11759;51.282;6.642;2023-03-31T04:02:37;31.00;;;4.32;;
23181;SDS011;11759;51.282;6.642;2023-03-31T04:05:05;23.38;;;3.65;;
23181;SDS011;11759;51.282;6.642;2023-03-31T04:07:31;20.60;;;3.83;;
23181;SDS011;11759;51.282;6.642;2023-03-31T04:09:58;19.10;;;3.25;;
23181;SDS011;11759;51.282;6.642;2023-03-31T04:12:25;19.60;;;3.85;;
23181;SDS011;11759;51.282;6.642;2023-03-31T04:14:51;14.98;;;3.42;;
23181;SDS011;11759;51.282;6.642;2023-03-31T04:17:18;22.27;;;3.20;;
23181;SDS011;11759;51.282;6.642;2023-03-31T04:19:45;16.83;;;3.42;;
23181;SDS011;11759;51.282;6.642;2023-03-31T04:22:16;18.80;;;3.47;;
23181;SDS011;11759;51.282;6.642;2023-03-31T04:24:45;16.95;;;3.25;;
23181;SDS011;11759;51.282;6.642;2023-03-31T04:27:17;12.65;;;3.08;;
23181;SDS011;11759;51.282;6.642;2023-03-31T04:29:46;22.63;;;3.92;;
23181;SDS011;11759;51.282;6.642;2023-03-31T04:32:20;19.65;;;3.22;;
23181;SDS011;11759;51.282;6.642;2023-03-31T04:34:47;14.68;;;2.97;;
23181;SDS011;11759;51.282;6.642;2023-03-31T04:37:16;14.32;;;3.10;;
23181;SDS011;11759;51.282;6.642;2023-03-31T04:39:43;15.45;;;3.45;;
23181;SDS011;11759;51.282;6.642;2023-03-31T04:42:11;16.08;;;2.78;;
23181;SDS011;11759;51.282;6.642;2023-03-31T04:44:38;15.18;;;3.70;;
23181;SDS011;11759;51.282;6.642;2023-03-31T04:47:05;17.67;;;3.70;;
23181;SDS011;11759;51.282;6.642;2023-03-31T04:49:32;21.67;;;3.15;;
23181;SDS011;11759;51.282;6.642;2023-03-31T04:52:01;14.20;;;3.08;;
23181;SDS011;11759;51.282;6.642;2023-03-31T04:54:27;14.00;;;3.78;;
23181;SDS011;11759;51.282;6.642;2023-03-31T04:56:54;17.98;;;3.13;;
23181;SDS011;11759;51.282;6.642;2023-03-31T04:59:20;17.85;;;3.53;;
23181;SDS011;11759;51.282;6.642;2023-03-31T05:01:47;12.32;;;3.00;;
23181;SDS011;11759;51.282;6.642;2023-03-31T05:04:14;21.52;;;2.85;;
23181;SDS011;11759;51.282;6.642;2023-03-31T05:06:41;13.38;;;3.25;;
23181;SDS011;11759;51.282;6.642;2023-03-31T05:09:07;11.32;;;3.47;;
23181;SDS011;11759;51.282;6.642;2023-03-31T05:11:35;18.85;;;3.38;;
23181;SDS011;11759;51.282;6.642;2023-03-31T05:14:01;12.05;;;3.13;;
23181;SDS011;11759;51.282;6.642;2023-03-31T05:16:28;13.32;;;2.50;;
23181;SDS011;11759;51.282;6.642;2023-03-31T05:18:56;16.30;;;3.33;;
23181;SDS011;11759;51.282;6.642;2023-03-31T05:21:22;10.50;;;3.40;;
23181;SDS011;11759;51.282;6.642;2023-03-31T05:23:49;11.23;;;2.55;;
23181;SDS011;11759;51.282;6.642;2023-03-31T05:26:16;11.77;;;2.30;;
23181;SDS011;11759;51.282;6.642;2023-03-31T05:28:42;7.43;;;2.72;;
23181;SDS011;11759;51.282;6.642;2023-03-31T05:31:09;10.15;;;2.85;;
23181;SDS011;11759;51.282;6.642;2023-03-31T05:33:38;13.43;;;2.40;;
23181;SDS011;11759;51.282;6.642;2023-03-31T05:36:07;12.30;;;2.33;;
23181;SDS011;11759;51.282;6.642;2023-03-31T05:38:35;10.55;;;2.20;;
23181;SDS011;11759;51.282;6.642;2023-03-31T05:41:02;10.02;;;2.38;;
23181;SDS011;11759;51.282;6.642;2023-03-31T05:43:29;7.25;;;1.98;;
23181;SDS011;11759;51.282;6.642;2023-03-31T05:45:56;15.13;;;2.20;;
23181;SDS011;11759;51.282;6.642;2023-03-31T05:48:22;9.95;;;2.05;;
23181;SDS011;11759;51.282;6.642;2023-03-31T05:50:49;9.55;;;2.30;;
23181;SDS011;11759;51.282;6.642;2023-03-31T05:53:16;15.40;;;4.30;;
23181;SDS011;11759;51.282;6.642;2023-03-31T05:55:42;9.02;;;2.22;;
23181;SDS011;11759;51.282;6.642;2023-03-31T05:58:09;7.82;;;2.03;;
23181;SDS011;11759;51.282;6.642;2023-03-31T06:00:35;9.55;;;1.90;;
23181;SDS011;11759;51.282;6.642;2023-03-31T06:03:03;16.10;;;2.53;;
23181;SDS011;11759;51.282;6.642;2023-03-31T06:05:30;15.38;;;3.20;;
23181;SDS011;11759;51.282;6.642;2023-03-31T06:07:57;12.68;;;2.78;;
23181;SDS011;11759;51.282;6.642;2023-03-31T06:10:24;12.27;;;3.00;;
23181;SDS011;11759;51.282;6.642;2023-03-31T06:12:51;12.52;;;2.58;;
23181;SDS011;11759;51.282;6.642;2023-03-31T06:15:17;14.60;;;2.72;;
23181;SDS011;11759;51.282;6.642;2023-03-31T06:17:44;11.05;;;2.63;;
23181;SDS011;11759;51.282;6.642;2023-03-31T06:20:11;27.60;;;3.83;;
23181;SDS011;11759;51.282;6.642;2023-03-31T06:22:53;11.95;;;2.22;;
23181;SDS011;11759;51.282;6.642;2023-03-31T06:25:19;11.60;;;2.55;;
23181;SDS011;11759;51.282;6.642;2023-03-31T06:27:47;12.13;;;2.10;;
23181;SDS011;11759;51.282;6.642;2023-03-31T06:30:13;11.80;;;1.80;;
23181;SDS011;11759;51.282;6.642;2023-03-31T06:32:40;11.60;;;2.88;;
23181;SDS011;11759;51.282;6.642;2023-03-31T06:35:07;17.02;;;2.10;;
23181;SDS011;11759;51.282;6.642;2023-03-31T06:37:33;13.65;;;4.25;;
23181;SDS011;11759;51.282;6.642;2023-03-31T06:40:00;10.18;;;2.00;;
23181;SDS011;11759;51.282;6.642;2023-03-31T06:42:28;9.60;;;1.58;;
23181;SDS011;11759;51.282;6.642;2023-03-31T06:44:54;8.50;;;1.85;;
23181;SDS011;11759;51.282;6.642;2023-03-31T06:47:21;23.73;;;2.38;;
23181;SDS011;11759;51.282;6.642;2023-03-31T06:49:47;11.98;;;2.05;;
23181;SDS011;11759;51.282;6.642;2023-03-31T06:52:14;6.10;;;1.65;;
23181;SDS011;11759;51.282;6.642;2023-03-31T06:54:41;12.38;;;1.67;;
23181;SDS011;11759;51.282;6.642;2023-03-31T06:57:08;7.65;;;2.53;;
23181;SDS011;11759;51.282;6.642;2023-03-31T06:59:35;6.82;;;1.63;;
23181;SDS011;11759;51.282;6.642;2023-03-31T07:02:02;10.60;;;1.70;;
23181;SDS011;11759;51.282;6.642;2023-03-31T07:04:29;13.18;;;2.15;;
23181;SDS011;11759;51.282;6.642;2023-03-31T07:06:57;6.50;;;1.80;;
23181;SDS011;11759;51.282;6.642;2023-03-31T07:09:24;17.13;;;1.98;;
23181;SDS011;11759;51.282;6.642;2023-03-31T07:11:51;10.45;;;1.90;;
23181;SDS011;11759;51.282;6.642;2023-03-31T07:14:23;9.45;;;1.80;;
23181;SDS011;11759;51.282;6.642;2023-03-31T07:16:49;10.43;;;2.33;;
23181;SDS011;11759;51.282;6.642;2023-03-31T07:19:16;6.88;;;2.20;;
23181;SDS011;11759;51.282;6.642;2023-03-31T07:21:43;9.40;;;2.17;;
23181;SDS011;11759;51.282;6.642;2023-03-31T07:24:10;7.55;;;2.08;;
23181;SDS011;11759;51.282;6.642;2023-03-31T07:26:36;11.00;;;2.05;;
23181;SDS011;11759;51.282;6.642;2023-03-31T07:29:03;12.13;;;2.40;;
23181;SDS011;11759;51.282;6.642;2023-03-31T07:31:29;12.05;;;2.00;;
23181;SDS011;11759;51.282;6.642;2023-03-31T07:33:56;6.70;;;1.90;;
23181;SDS011;11759;51.282;6.642;2023-03-31T07:36:22;6.68;;;1.92;;
23181;SDS011;11759;51.282;6.642;2023-03-31T07:38:49;13.00;;;2.53;;
23181;SDS011;11759;51.282;6.642;2023-03-31T07:41:17;9.60;;;2.28;;
23181;SDS011;11759;51.282;6.642;2023-03-31T07:43:45;10.70;;;1.85;;
23181;SDS011;11759;51.282;6.642;2023-03-31T07:46:22;9.32;;;1.98;;
23181;SDS011;11759;51.282;6.642;2023-03-31T07:48:51;11.00;;;1.70;;
23181;SDS011;11759;51.282;6.642;2023-03-31T07:51:19;8.85;;;1.92;;
23181;SDS011;11759;51.282;6.642;2023-03-31T07:53:47;10.75;;;1.58;;
23181;SDS011;11759;51.282;6.642;2023-03-31T07:58:46;8.45;;;1.88;;
23181;SDS011;11759;51.282;6.642;2023-03-31T08:01:14;10.52;;;1.70;;
23181;SDS011;11759;51.282;6.642;2023-03-31T08:03:45;135.65;;;72.30;;
23181;SDS011;11759;51.282;6.642;2023-03-31T08:06:22;225.60;;;88.10;;
23181;SDS011;11759;51.282;6.642;2023-03-31T08:08:49;15.73;;;2.10;;
23181;SDS011;11759;51.282;6.642;2023-03-31T08:11:16;11.60;;;3.95;;
23181;SDS011;11759;51.282;6.642;2023-03-31T08:13:44;162.45;;;76.20;;
23181;SDS011;11759;51.282;6.642;2023-03-31T08:16:11;12.57;;;2.22;;
23181;SDS011;11759;51.282;6.642;2023-03-31T08:18:38;7.88;;;1.77;;
23181;SDS011;11759;51.282;6.642;2023-03-31T08:21:04;158.38;;;65.45;;
23181;SDS011;11759;51.282;6.642;2023-03-31T08:23:31;522.03;;;118.28;;
23181;SDS011;11759;51.282;6.642;2023-03-31T08:26:14;742.50;;;242.80;;
23181;SDS011;11759;51.282;6.642;2023-03-31T08:28:45;44.53;;;8.40;;
23181;SDS011;11759;51.282;6.642;2023-03-31T08:31:14;583.80;;;139.80;;
23181;SDS011;11759;51.282;6.642;2023-03-31T08:33:42;551.33;;;123.80;;
23181;SDS011;11759;51.282;6.642;2023-03-31T08:36:08;545.35;;;121.63;;
23181;SDS011;11759;51.282;6.642;2023-03-31T08:38:36;562.58;;;129.90;;
23181;SDS011;11759;51.282;6.642;2023-03-31T08:41:05;593.10;;;145.73;;
23181;SDS011;11759;51.282;6.642;2023-03-31T08:43:38;599.70;;;151.25;;
23181;SDS011;11759;51.282;6.642;2023-03-31T08:46:09;586.92;;;142.82;;
23181;SDS011;11759;51.282;6.642;2023-03-31T08:48:37;579.67;;;147.77;;
23181;SDS011;11759;51.282;6.642;2023-03-31T08:51:35;604.72;;;166.13;;
23181;SDS011;11759;51.282;6.642;2023-03-31T08:54:05;583.25;;;152.25;;
23181;SDS011;11759;51.282;6.642;2023-03-31T08:56:43;576.63;;;145.15;;
23181;SDS011;11759;51.282;6.642;2023-03-31T08:59:23;637.40;;;195.18;;
23181;SDS011;11759;51.282;6.642;2023-03-31T09:07:34;600.72;;;159.15;;
23181;SDS011;11759;51.282;6.642;2023-03-31T09:18:16;587.53;;;150.43;;
23181;SDS011;11759;51.282;6.642;2023-03-31T09:20:53;581.85;;;147.15;;
23181;SDS011;11759;51.282;6.642;2023-03-31T09:25:56;581.05;;;147.75;;
23181;SDS011;11759;51.282;6.642;2023-03-31T09:28:31;725.78;;;272.67;;
23181;SDS011;11759;51.282;6.642;2023-03-31T09:31:07;589.65;;;157.95;;
23181;SDS011;11759;51.282;6.642;2023-03-31T09:33:45;620.65;;;185.27;;
23181;SDS011;11759;51.282;6.642;2023-03-31T09:36:16;586.38;;;162.88;;
23181;SDS011;11759;51.282;6.642;2023-03-31T09:38:45;615.35;;;184.73;;
23181;SDS011;11759;51.282;6.642;2023-03-31T09:41:13;598.45;;;176.55;;
23181;SDS011;11759;51.282;6.642;2023-03-31T09:43:41;754.45;;;332.60;;
23181;SDS011;11759;51.282;6.642;2023-03-31T09:46:15;606.08;;;209.15;;
23181;SDS011;11759;51.282;6.642;2023-03-31T09:48:54;637.00;;;254.02;;
23181;SDS011;11759;51.282;6.642;2023-03-31T09:51:26;635.67;;;238.20;;
23181;SDS011;11759;51.282;6.642;2023-03-31T09:53:57;603.45;;;203.82;;
23181;SDS011;11759;51.282;6.642;2023-03-31T09:56:32;631.60;;;221.57;;
23181;SDS011;11759;51.282;6.642;2023-03-31T09:59:02;593.17;;;170.93;;
23181;SDS011;11759;51.282;6.642;2023-03-31T10:01:29;711.05;;;251.73;;
23181;SDS011;11759;51.282;6.642;2023-03-31T10:03:57;580.80;;;147.68;;
23181;SDS011;11759;51.282;6.642;2023-03-31T10:06:23;587.10;;;149.82;;
23181;SDS011;11759;51.282;6.642;2023-03-31T10:08:55;576.30;;;142.70;;
23181;SDS011;11759;51.282;6.642;2023-03-31T10:11:23;591.40;;;148.45;;
23181;SDS011;11759;51.282;6.642;2023-03-31T10:13:58;583.08;;;143.88;;
23181;SDS011;11759;51.282;6.642;2023-03-31T10:16:29;668.58;;;218.57;;
23181;SDS011;11759;51.282;6.642;2023-03-31T10:21:44;603.20;;;163.30;;
23181;SDS011;11759;51.282;6.642;2023-03-31T10:24:18;589.05;;;161.77;;
23181;SDS011;11759;51.282;6.642;2023-03-31T10:26:48;621.10;;;191.10;;
23181;SDS011;11759;51.282;6.642;2023-03-31T10:29:18;600.03;;;182.43;;
23181;SDS011;11759;51.282;6.642;2023-03-31T10:32:03;601.20;;;184.95;;
23181;SDS011;11759;51.282;6.642;2023-03-31T10:34:34;694.33;;;264.98;;
23181;SDS011;11759;51.282;6.642;2023-03-31T10:37:05;605.85;;;192.20;;
23181;SDS011;11759;51.282;6.642;2023-03-31T10:39:32;625.15;;;200.32;;
23181;SDS011;11759;51.282;6.642;2023-03-31T10:41:59;589.95;;;155.45;;
23181;SDS011;11759;51.282;6.642;2023-03-31T10:44:36;598.75;;;162.60;;
23181;SDS011;11759;51.282;6.642;2023-03-31T10:49:39;647.22;;;189.85;;
23181;SDS011;11759;51.282;6.642;2023-03-31T10:52:14;564.25;;;125.07;;
23181;SDS011;11759;51.282;6.642;2023-03-31T10:54:58;578.28;;;136.50;;
23181;SDS011;11759;51.282;6.642;2023-03-31T11:00:11;622.40;;;183.35;;
23181;SDS011;11759;51.282;6.642;2023-03-31T11:05:26;555.03;;;121.35;;
23181;SDS011;11759;51.282;6.642;2023-03-31T11:10:55;591.70;;;144.98;;
23181;SDS011;11759;51.282;6.642;2023-03-31T11:19:23;564.90;;;129.75;;
23181;SDS011;11759;51.282;6.642;2023-03-31T11:30:45;577.83;;;144.60;;
23181;SDS011;11759;51.282;6.642;2023-03-31T11:41:11;580.15;;;151.77;;
23181;SDS011;11759;51.282;6.642;2023-03-31T11:43:43;627.85;;;186.93;;
23181;SDS011;11759;51.282;6.642;2023-03-31T11:46:22;580.22;;;155.98;;
23181;SDS011;11759;51.282;6.642;2023-03-31T11:49:03;589.65;;;170.68;;
23181;SDS011;11759;51.282;6.642;2023-03-31T11:51:40;705.45;;;268.23;;
23181;SDS011;11759;51.282;6.642;2023-03-31T11:54:15;597.47;;;185.38;;
23181;SDS011;11759;51.282;6.642;2023-03-31T11:56:45;603.15;;;194.73;;
23181;SDS011;11759;51.282;6.642;2023-03-31T11:59:13;595.75;;;186.60;;
23181;SDS011;11759;51.282;6.642;2023-03-31T12:01:53;609.90;;;186.13;;
23181;SDS011;11759;51.282;6.642;2023-03-31T12:04:41;602.53;;;184.73;;
23181;SDS011;11759;51.282;6.642;2023-03-31T12:12:48;583.70;;;154.20;;
23181;SDS011;11759;51.282;6.642;2023-03-31T12:15:20;653.40;;;206.55;;
23181;SDS011;11759;51.282;6.642;2023-03-31T12:18:08;583.90;;;145.48;;
23181;SDS011;11759;51.282;6.642;2023-03-31T12:20:45;573.95;;;139.55;;
23181;SDS011;11759;51.282;6.642;2023-03-31T12:23:16;575.40;;;132.50;;
23181;SDS011;11759;51.282;6.642;2023-03-31T12:25:47;581.05;;;143.88;;
23181;SDS011;11759;51.282;6.642;2023-03-31T12:28:17;571.85;;;141.43;;
23181;SDS011;11759;51.282;6.642;2023-03-31T12:30:44;587.03;;;159.48;;
23181;SDS011;11759;51.282;6.642;2023-03-31T12:33:18;578.80;;;149.85;;
23181;SDS011;11759;51.282;6.642;2023-03-31T12:41:41;587.63;;;173.48;;
23181;SDS011;11759;51.282;6.642;2023-03-31T12:44:15;609.25;;;194.70;;
23181;SDS011;11759;51.282;6.642;2023-03-31T12:49:32;643.33;;;235.77;;
23181;SDS011;11759;51.282;6.642;2023-03-31T13:01:07;600.33;;;183.35;;
23181;SDS011;11759;51.282;6.642;2023-03-31T13:04:45;590.80;;;178.15;;
23181;SDS011;11759;51.282;6.642;2023-03-31T13:06:50;589.40;;;174.57;;
23181;SDS011;11759;51.282;6.642;2023-03-31T13:11:47;604.83;;;203.15;;
23181;SDS011;11759;51.282;6.642;2023-03-31T13:14:16;638.88;;;239.73;;
23181;SDS011;11759;51.282;6.642;2023-03-31T13:16:48;615.70;;;235.77;;
23181;SDS011;11759;51.282;6.642;2023-03-31T13:19:30;622.58;;;246.40;;
23181;SDS011;11759;51.282;6.642;2023-03-31T13:21:59;614.75;;;235.63;;
23181;SDS011;11759;51.282;6.642;2023-03-31T13:24:28;618.03;;;230.23;;
23181;SDS011;11759;51.282;6.642;2023-03-31T13:29:53;611.22;;;221.18;;
23181;SDS011;11759;51.282;6.642;2023-03-31T13:32:21;636.38;;;253.63;;
23181;SDS011;11759;51.282;6.642;2023-03-31T14:03:22;591.53;;;187.40;;
23181;SDS011;11759;51.282;6.642;2023-03-31T14:05:58;588.90;;;186.43;;
23181;SDS011;11759;51.282;6.642;2023-03-31T14:16:44;576.33;;;168.90;;
23181;SDS011;11759;51.282;6.642;2023-03-31T14:19:22;668.17;;;239.68;;
23181;SDS011;11759;51.282;6.642;2023-03-31T14:24:39;580.55;;;164.27;;
23181;SDS011;11759;51.282;6.642;2023-03-31T14:27:14;670.92;;;244.20;;
23181;SDS011;11759;51.282;6.642;2023-03-31T14:30:13;622.95;;;208.60;;
23181;SDS011;11759;51.282;6.642;2023-03-31T14:35:50;570.38;;;153.07;;
23181;SDS011;11759;51.282;6.642;2023-03-31T14:38:33;570.85;;;151.40;;
23181;SDS011;11759;51.282;6.642;2023-03-31T14:40:59;569.35;;;146.40;;
23181;SDS011;11759;51.282;6.642;2023-03-31T14:43:27;582.80;;;156.32;;
23181;SDS011;11759;51.282;6.642;2023-03-31T14:46:05;568.75;;;138.45;;
23181;SDS011;11759;51.282;6.642;2023-03-31T14:48:37;553.78;;;131.35;;
23181;SDS011;11759;51.282;6.642;2023-03-31T14:51:10;608.67;;;170.95;;
23181;SDS011;11759;51.282;6.642;2023-03-31T14:53:40;559.70;;;129.35;;
23181;SDS011;11759;51.282;6.642;2023-03-31T14:56:10;577.08;;;141.65;;
23181;SDS011;11759;51.282;6.642;2023-03-31T14:58:39;550.60;;;123.13;;
23181;SDS011;11759;51.282;6.642;2023-03-31T15:01:07;612.40;;;172.13;;
23181;SDS011;11759;51.282;6.642;2023-03-31T15:03:35;575.95;;;141.23;;
23181;SDS011;11759;51.282;6.642;2023-03-31T15:06:06;563.00;;;130.43;;
23181;SDS011;11759;51.282;6.642;2023-03-31T15:08:33;539.92;;;118.50;;
23181;SDS011;11759;51.282;6.642;2023-03-31T15:11:01;550.55;;;118.80;;
23181;SDS011;11759;51.282;6.642;2023-03-31T15:16:33;534.50;;;112.63;;
23181;SDS011;11759;51.282;6.642;2023-03-31T15:21:54;536.10;;;115.80;;
23181;SDS011;11759;51.282;6.642;2023-03-31T15:24:22;538.28;;;113.63;;
23181;SDS011;11759;51.282;6.642;2023-03-31T15:29:37;548.53;;;121.32;;
23181;SDS011;11759;51.282;6.642;2023-03-31T15:32:11;543.17;;;120.95;;
23181;SDS011;11759;51.282;6.642;2023-03-31T15:34:40;573.33;;;137.93;;
23181;SDS011;11759;51.282;6.642;2023-03-31T15:37:08;540.80;;;117.55;;
23181;SDS011;11759;51.282;6.642;2023-03-31T15:39:35;563.85;;;133.13;;
23181;SDS011;11759;51.282;6.642;2023-03-31T15:42:03;549.75;;;122.55;;
23181;SDS011;11759;51.282;6.642;2023-03-31T15:44:35;552.95;;;125.80;;
23181;SDS011;11759;51.282;6.642;2023-03-31T15:47:05;547.83;;;127.05;;
23181;SDS011;11759;51.282;6.642;2023-03-31T15:49:45;561.33;;;133.15;;
23181;SDS011;11759;51.282;6.642;2023-03-31T15:53:18;576.22;;;138.43;;
23181;SDS011;11759;51.282;6.642;2023-03-31T15:55:24;629.75;;;189.05;;
23181;SDS011;11759;51.282;6.642;2023-03-31T15:57:55;554.70;;;130.68;;
23181;SDS011;11759;51.282;6.642;2023-03-31T16:02:59;555.38;;;129.82;;
23181;SDS011;11759;51.282;6.642;2023-03-31T16:08:21;564.30;;;133.15;;
23181;SDS011;11759;51.282;6.642;2023-03-31T16:11:00;543.60;;;123.53;;
23181;SDS011;11759;51.282;6.642;2023-03-31T16:13:29;542.83;;;122.85;;
23181;SDS011;11759;51.282;6.642;2023-03-31T16:15:56;543.47;;;123.30;;
23181;SDS011;11759;51.282;6.642;2023-03-31T16:18:26;548.38;;;125.60;;
23181;SDS011;11759;51.282;6.642;2023-03-31T16:20:59;545.63;;;125.82;;
23181;SDS011;11759;51.282;6.642;2023-03-31T16:23:28;533.03;;;114.50;;
23181;SDS011;11759;51.282;6.642;2023-03-31T16:25:57;537.67;;;115.40;;
23181;SDS011;11759;51.282;6.642;2023-03-31T16:28:32;577.20;;;138.95;;
23181;SDS011;11759;51.282;6.642;2023-03-31T16:31:00;541.38;;;117.53;;
23181;SDS011;11759;51.282;6.642;2023-03-31T16:33:28;526.38;;;110.80;;
23181;SDS011;11759;51.282;6.642;2023-03-31T16:35:57;537.97;;;114.38;;
23181;SDS011;11759;51.282;6.642;2023-03-31T16:38:27;534.47;;;112.40;;
23181;SDS011;11759;51.282;6.642;2023-03-31T16:40:56;528.20;;;110.95;;
23181;SDS011;11759;51.282;6.642;2023-03-31T16:43:24;571.88;;;141.60;;
23181;SDS011;11759;51.282;6.642;2023-03-31T16:45:56;521.47;;;108.40;;
23181;SDS011;11759;51.282;6.642;2023-03-31T16:48:24;571.03;;;139.25;;
23181;SDS011;11759;51.282;6.642;2023-03-31T16:50:53;524.50;;;109.47;;
23181;SDS011;11759;51.282;6.642;2023-03-31T16:53:22;551.35;;;125.47;;
23181;SDS011;11759;51.282;6.642;2023-03-31T16:55:50;521.45;;;110.47;;
23181;SDS011;11759;51.282;6.642;2023-03-31T16:58:16;685.67;;;225.43;;
23181;SDS011;11759;51.282;6.642;2023-03-31T17:00:44;525.95;;;109.03;;
23181;SDS011;11759;51.282;6.642;2023-03-31T17:03:11;571.72;;;137.10;;
23181;SDS011;11759;51.282;6.642;2023-03-31T17:05:40;521.13;;;106.55;;
23181;SDS011;11759;51.282;6.642;2023-03-31T17:08:08;559.65;;;126.30;;
23181;SDS011;11759;51.282;6.642;2023-03-31T17:10:36;525.20;;;109.32;;
23181;SDS011;11759;51.282;6.642;2023-03-31T17:13:04;648.35;;;200.43;;
23181;SDS011;11759;51.282;6.642;2023-03-31T17:15:31;523.47;;;107.78;;
23181;SDS011;11759;51.282;6.642;2023-03-31T17:18:01;540.42;;;118.00;;
23181;SDS011;11759;51.282;6.642;2023-03-31T17:20:29;526.42;;;108.00;;
23181;SDS011;11759;51.282;6.642;2023-03-31T17:22:55;526.97;;;107.55;;
23181;SDS011;11759;51.282;6.642;2023-03-31T17:25:22;546.03;;;120.50;;
23181;SDS011;11759;51.282;6.642;2023-03-31T17:27:48;518.13;;;104.82;;
23181;SDS011;11759;51.282;6.642;2023-03-31T17:30:15;628.10;;;185.43;;
23181;SDS011;11759;51.282;6.642;2023-03-31T17:32:41;518.88;;;106.82;;
23181;SDS011;11759;51.282;6.642;2023-03-31T17:35:08;678.47;;;233.57;;